createdAt,value
2022-12-28T00:01:48.156Z,11.02
2022-12-28T00:04:15.831Z,11.63
2022-12-28T00:06:43.240Z,11.63
2022-12-28T00:09:13.182Z,15.38
2022-12-28T00:11:40.564Z,14.13
2022-12-28T00:14:07.996Z,14.30
2022-12-28T00:16:39.740Z,13.25
2022-12-28T00:19:08.519Z,11.77
2022-12-28T00:21:35.803Z,11.55
2022-12-28T00:24:03.717Z,11.80
2022-12-28T00:26:32.237Z,13.05
2022-12-28T00:29:04.607Z,11.20
2022-12-28T00:31:32.678Z,13.63
2022-12-28T00:33:59.994Z,16.58
2022-12-28T00:37:09.756Z,13.40
2022-12-28T00:39:14.834Z,15.88
2022-12-28T00:41:44.513Z,14.18
2022-12-28T00:44:14.218Z,16.75
2022-12-28T00:46:42.392Z,16.10
2022-12-28T00:49:09.680Z,15.45
2022-12-28T00:51:36.946Z,15.25
2022-12-28T00:54:06.885Z,13.55
2022-12-28T00:56:34.370Z,12.48
2022-12-28T00:59:01.749Z,12.75
2022-12-28T01:01:29.714Z,11.95
2022-12-28T01:03:57.607Z,12.15
2022-12-28T01:06:25.910Z,14.05
2022-12-28T01:08:53.123Z,13.95
2022-12-28T01:11:32.116Z,15.15
2022-12-28T01:14:00.904Z,13.70
2022-12-28T01:16:29.787Z,13.52
2022-12-28T01:18:58.779Z,13.98
2022-12-28T01:21:32.484Z,13.77
2022-12-28T01:24:01.094Z,14.02
2022-12-28T01:26:28.896Z,13.10
2022-12-28T01:28:56.115Z,13.65
2022-12-28T01:31:24.048Z,14.18
2022-12-28T01:33:51.455Z,13.35
2022-12-28T01:36:20.187Z,13.25
2022-12-28T01:38:47.766Z,12.00
2022-12-28T01:41:16.236Z,12.02
2022-12-28T01:43:48.190Z,11.93
2022-12-28T01:46:20.411Z,12.32
2022-12-28T01:49:13.946Z,13.88
2022-12-28T01:51:45.408Z,16.15
2022-12-28T01:54:15.478Z,14.88
2022-12-28T01:56:44.040Z,13.50
2022-12-28T01:59:11.972Z,15.30
2022-12-28T02:01:39.769Z,14.10
2022-12-28T02:04:07.157Z,13.25
2022-12-28T02:06:34.531Z,13.13
2022-12-28T02:09:07.158Z,14.52
2022-12-28T02:11:34.416Z,14.45
2022-12-28T02:14:04.013Z,14.05
2022-12-28T02:16:31.246Z,12.90
2022-12-28T02:18:58.682Z,13.50
2022-12-28T02:21:42.399Z,13.48
2022-12-28T02:24:12.802Z,13.70
2022-12-28T02:26:44.306Z,12.73
2022-12-28T02:29:31.052Z,11.65
2022-12-28T02:32:01.599Z,11.88
2022-12-28T02:34:34.144Z,13.52
2022-12-28T02:37:06.647Z,14.23
2022-12-28T02:39:44.212Z,13.27
2022-12-28T02:42:12.456Z,16.27
2022-12-28T02:44:58.321Z,13.40
2022-12-28T02:47:44.497Z,14.68
2022-12-28T02:50:13.312Z,14.10
2022-12-28T02:53:03.691Z,15.23
2022-12-28T02:56:08.425Z,13.68
2022-12-28T02:58:36.374Z,15.98
2022-12-28T03:01:10.185Z,15.52
2022-12-28T03:04:03.853Z,17.40
2022-12-28T03:07:02.406Z,17.92
2022-12-28T03:09:37.016Z,16.33
2022-12-28T03:12:27.477Z,18.05
2022-12-28T03:14:57.499Z,17.80
2022-12-28T03:17:45.807Z,17.75
2022-12-28T03:20:36.080Z,18.27
2022-12-28T03:23:23.889Z,17.35
2022-12-28T03:26:10.964Z,20.48
2022-12-28T03:28:59.664Z,19.95
2022-12-28T03:31:29.130Z,20.25
2022-12-28T03:34:07.224Z,18.40
2022-12-28T03:36:54.728Z,18.85
2022-12-28T03:39:31.064Z,20.05
2022-12-28T03:42:40.513Z,19.98
2022-12-28T03:45:14.263Z,18.58
2022-12-28T03:48:06.397Z,19.15
2022-12-28T03:50:36.811Z,19.27
2022-12-28T03:53:04.375Z,20.10
2022-12-28T03:55:31.874Z,19.25
2022-12-28T03:58:01.693Z,19.55
2022-12-28T04:00:29.003Z,19.02
2022-12-28T04:02:56.492Z,19.40
2022-12-28T04:05:23.942Z,19.85
2022-12-28T04:07:53.041Z,21.05
2022-12-28T04:10:25.244Z,19.77
2022-12-28T04:12:56.928Z,18.63
2022-12-28T04:15:24.395Z,20.65
2022-12-28T04:17:51.740Z,18.25
2022-12-28T04:20:26.601Z,18.35
2022-12-28T04:22:54.133Z,18.35
2022-12-28T04:25:25.389Z,18.77
2022-12-28T04:27:57.761Z,19.05
2022-12-28T04:30:29.528Z,19.52
2022-12-28T04:32:57.046Z,19.70
2022-12-28T04:35:24.385Z,16.92
2022-12-28T04:37:59.354Z,18.42
2022-12-28T04:40:26.798Z,19.08
2022-12-28T04:42:59.656Z,19.20
2022-12-28T04:45:27.131Z,18.02
2022-12-28T04:48:06.717Z,18.05
2022-12-28T04:50:47.354Z,18.38
2022-12-28T04:55:50.712Z,18.20
2022-12-28T04:58:18.100Z,19.27
2022-12-28T05:00:45.525Z,15.52
2022-12-28T05:03:15.744Z,16.33
2022-12-28T05:05:45.700Z,15.77
2022-12-28T05:08:13.185Z,15.13
2022-12-28T05:10:42.981Z,16.35
2022-12-28T05:13:12.739Z,17.47
2022-12-28T05:15:42.388Z,20.25
2022-12-28T05:18:11.550Z,17.13
2022-12-28T05:20:42.263Z,17.25
2022-12-28T05:25:39.571Z,17.83
2022-12-28T05:28:08.606Z,17.15
2022-12-28T05:30:38.981Z,17.20
2022-12-28T05:33:07.702Z,17.50
2022-12-28T05:35:36.346Z,17.30
2022-12-28T05:38:03.813Z,17.98
2022-12-28T05:40:31.276Z,17.13
2022-12-28T05:43:00.801Z,18.08
2022-12-28T05:45:32.245Z,17.65
2022-12-28T05:48:00.704Z,17.05
2022-12-28T05:50:31.895Z,17.88
2022-12-28T05:53:01.794Z,17.77
2022-12-28T05:55:29.865Z,19.73
2022-12-28T05:58:00.552Z,20.63
2022-12-28T06:03:00.788Z,17.48
2022-12-28T06:05:34.978Z,17.63
2022-12-28T06:08:19.452Z,19.00
2022-12-28T06:10:51.383Z,17.58
2022-12-28T06:13:26.267Z,18.17
2022-12-28T06:15:55.269Z,20.92
2022-12-28T06:18:24.675Z,35.80
2022-12-28T06:20:57.333Z,46.22
2022-12-28T06:23:41.819Z,35.88
2022-12-28T06:26:09.472Z,28.85
2022-12-28T06:31:28.435Z,18.05
2022-12-28T06:34:01.003Z,20.58
2022-12-28T06:36:30.060Z,21.00
2022-12-28T06:39:00.707Z,18.80
2022-12-28T06:43:55.697Z,20.20
2022-12-28T06:46:32.345Z,21.10
2022-12-28T06:49:21.611Z,22.25
2022-12-28T06:52:09.843Z,21.15
2022-12-28T06:55:18.149Z,21.20
2022-12-28T06:58:10.182Z,20.02
2022-12-28T07:00:52.802Z,20.02
2022-12-28T09:47:06.063Z,8.98
2022-12-28T10:09:04.396Z,7.63
2022-12-28T10:11:11.273Z,7.35
2022-12-28T10:13:54.968Z,6.57
2022-12-28T10:17:02.934Z,7.50
2022-12-28T10:19:38.072Z,7.40
2022-12-28T10:22:14.811Z,8.10
2022-12-28T10:24:54.294Z,7.35
2022-12-28T10:27:26.053Z,6.30
2022-12-28T10:30:04.065Z,7.45
2022-12-28T10:33:51.868Z,7.10
2022-12-28T10:35:57.554Z,7.15
2022-12-28T10:38:31.004Z,6.80
2022-12-28T10:47:41.322Z,6.78
2022-12-28T10:50:35.955Z,8.13
2022-12-28T10:53:57.618Z,7.50
2022-12-28T10:56:19.093Z,6.68
2022-12-28T10:59:14.618Z,7.45
2022-12-28T11:04:38.397Z,7.13
2022-12-28T11:07:27.450Z,7.07
2022-12-28T11:10:22.400Z,6.72
2022-12-28T11:12:54.553Z,7.10
2022-12-28T11:18:33.247Z,6.22
2022-12-28T11:21:13.040Z,7.30
2022-12-28T11:23:57.880Z,8.98
2022-12-28T11:26:35.274Z,8.52
2022-12-28T11:29:03.113Z,9.68
2022-12-28T12:00:24.367Z,8.18
2022-12-28T12:03:07.894Z,12.40
2022-12-28T12:05:41.748Z,10.20
2022-12-28T12:08:33.493Z,10.45
2022-12-28T12:11:22.684Z,10.15
2022-12-28T12:13:52.686Z,9.98
2022-12-28T12:16:45.338Z,11.35
2022-12-28T12:22:18.220Z,9.38
2022-12-28T12:25:04.006Z,10.63
2022-12-28T12:27:46.838Z,8.32
2022-12-28T12:30:18.439Z,7.78
2022-12-28T12:32:47.067Z,8.98
2022-12-28T12:35:22.148Z,9.80
2022-12-28T12:38:35.816Z,9.15
2022-12-28T12:41:14.661Z,9.13
2022-12-28T12:44:04.842Z,9.55
2022-12-28T12:47:05.426Z,7.85
2022-12-28T12:49:39.295Z,8.23
2022-12-28T12:52:25.009Z,9.10
2022-12-28T12:55:18.242Z,7.38
2022-12-28T13:11:40.262Z,8.13
2022-12-28T13:14:50.187Z,8.07
2022-12-28T13:17:40.322Z,8.67
2022-12-28T13:21:01.832Z,9.20
2022-12-28T13:33:59.656Z,9.20
2022-12-28T13:37:08.300Z,8.63
2022-12-28T13:40:11.946Z,7.13
2022-12-28T13:42:48.680Z,9.75
2022-12-28T13:45:23.031Z,9.32
2022-12-28T13:47:52.078Z,8.27
2022-12-28T13:50:28.119Z,8.00
2022-12-28T13:53:05.968Z,7.50
2022-12-28T13:55:36.665Z,7.38
2022-12-28T14:00:34.494Z,8.00
2022-12-28T14:03:01.939Z,9.77
2022-12-28T14:05:35.124Z,9.55
2022-12-28T14:08:02.886Z,9.07
2022-12-28T14:10:31.465Z,10.05
2022-12-28T14:12:59.847Z,9.68
2022-12-28T14:15:27.909Z,10.20
2022-12-28T14:17:58.210Z,10.30
2022-12-28T14:20:28.250Z,11.20
2022-12-28T14:23:16.057Z,9.75
2022-12-28T14:25:43.722Z,8.93
2022-12-28T14:28:19.032Z,10.90
2022-12-28T14:30:52.094Z,11.63
2022-12-28T14:33:25.455Z,12.00
2022-12-28T14:35:58.822Z,11.25
2022-12-28T14:38:38.133Z,9.85
2022-12-28T14:44:01.601Z,11.02
2022-12-28T14:46:36.312Z,10.57
2022-12-28T14:49:22.243Z,9.63
2022-12-28T14:51:52.067Z,9.35
2022-12-28T14:54:26.044Z,9.85
2022-12-28T14:57:02.060Z,9.40
2022-12-28T14:59:29.590Z,10.45
2022-12-28T15:01:57.509Z,10.10
2022-12-28T15:04:25.992Z,10.75
2022-12-28T15:06:55.042Z,10.35
2022-12-28T15:09:22.706Z,9.60
2022-12-28T15:12:09.512Z,10.02
2022-12-28T15:14:37.725Z,10.18
2022-12-28T15:17:05.577Z,9.35
2022-12-28T15:19:42.906Z,10.27
2022-12-28T15:22:11.168Z,10.45
2022-12-28T15:24:41.754Z,9.95
2022-12-28T15:30:07.681Z,12.32
2022-12-28T15:32:24.043Z,11.10
2022-12-28T15:34:51.344Z,11.50
2022-12-28T15:37:18.584Z,15.05
2022-12-28T15:39:54.797Z,12.75
2022-12-28T15:42:28.359Z,10.32
2022-12-28T15:44:59.188Z,9.80
2022-12-28T15:47:26.677Z,9.48
2022-12-28T15:49:55.685Z,10.63
2022-12-28T15:52:23.116Z,10.50
2022-12-28T15:54:50.474Z,9.88
2022-12-28T15:57:18.062Z,10.07
2022-12-28T15:59:45.500Z,9.63
2022-12-28T16:02:13.244Z,9.18
2022-12-28T16:04:40.866Z,9.27
2022-12-28T16:07:08.215Z,8.85
2022-12-28T16:09:35.540Z,8.90
2022-12-28T16:12:03.138Z,8.65
2022-12-28T16:14:30.440Z,9.10
2022-12-28T16:16:57.947Z,9.05
2022-12-28T16:19:25.297Z,9.18
2022-12-28T16:21:52.661Z,9.82
2022-12-28T16:24:23.158Z,9.35
2022-12-28T16:26:52.662Z,9.73
2022-12-28T16:29:23.586Z,8.88
2022-12-28T16:31:52.958Z,9.63
2022-12-28T16:38:28.377Z,8.68
2022-12-28T16:41:19.188Z,8.85
2022-12-28T16:50:17.606Z,11.60
2022-12-28T16:52:44.874Z,9.27
2022-12-28T16:55:12.264Z,11.10
2022-12-28T16:57:39.513Z,9.85
2022-12-28T17:00:10.478Z,9.77
2022-12-28T17:02:37.928Z,8.88
2022-12-28T17:05:05.493Z,9.50
2022-12-28T17:07:33.087Z,8.93
2022-12-28T17:10:00.326Z,9.60
2022-12-28T17:12:44.267Z,9.88
2022-12-28T17:15:31.126Z,8.95
2022-12-28T17:23:47.341Z,7.80
2022-12-28T17:26:19.815Z,7.28
2022-12-28T17:29:22.539Z,8.65
2022-12-28T17:31:55.499Z,6.95
2022-12-28T17:34:35.403Z,7.25
2022-12-28T17:37:06.775Z,6.68
2022-12-28T17:39:56.434Z,6.78
2022-12-28T17:42:28.468Z,7.57
2022-12-28T17:48:05.866Z,6.72
2022-12-28T17:56:35.467Z,7.30
2022-12-28T18:01:47.688Z,6.88
2022-12-28T18:04:40.702Z,6.22
2022-12-28T18:07:11.733Z,6.60
2022-12-28T18:09:58.640Z,6.97
2022-12-28T18:12:47.961Z,6.95
2022-12-28T18:15:31.361Z,7.07
2022-12-28T18:18:03.117Z,6.53
2022-12-28T18:20:38.463Z,6.85
2022-12-28T18:23:09.443Z,6.63
2022-12-28T18:25:40.825Z,7.47
2022-12-28T18:28:13.266Z,6.95
2022-12-28T18:31:02.006Z,6.30
2022-12-28T18:33:40.676Z,7.32
2022-12-28T18:36:27.671Z,7.28
2022-12-28T18:39:13.502Z,7.90
2022-12-28T18:41:51.914Z,6.68
2022-12-28T18:44:32.291Z,7.55
2022-12-28T18:47:54.074Z,7.80
2022-12-28T18:50:00.388Z,7.30
2022-12-28T18:52:43.437Z,6.88
2022-12-28T18:55:44.020Z,8.38
2022-12-28T18:58:25.327Z,9.52
2022-12-28T19:03:44.729Z,8.60
2022-12-28T19:06:18.382Z,20.75
2022-12-28T19:08:55.251Z,24.40
2022-12-28T19:11:22.538Z,24.13
2022-12-28T19:13:49.940Z,26.17
2022-12-28T19:16:18.779Z,25.88
2022-12-28T19:18:48.701Z,16.10
2022-12-28T19:21:16.182Z,24.00
2022-12-28T19:23:43.842Z,24.95
2022-12-28T19:26:13.145Z,28.30
2022-12-28T19:28:45.695Z,30.40
2022-12-28T19:31:33.013Z,29.48
2022-12-28T19:34:09.231Z,27.55
2022-12-28T19:36:45.890Z,25.15
2022-12-28T19:39:30.440Z,25.20
2022-12-28T19:42:18.885Z,19.30
2022-12-28T19:44:48.805Z,23.95
2022-12-28T19:47:25.819Z,23.50
2022-12-28T19:50:02.930Z,22.33
2022-12-28T19:52:30.143Z,25.00
2022-12-28T19:54:57.516Z,25.60
2022-12-28T19:57:24.889Z,24.80
2022-12-28T19:59:52.495Z,25.80
2022-12-28T20:02:20.068Z,25.05
2022-12-28T20:05:01.640Z,24.75
2022-12-28T20:07:28.925Z,26.23
2022-12-28T20:10:04.917Z,29.63
2022-12-28T20:12:32.487Z,28.60
2022-12-28T20:18:50.959Z,27.77
2022-12-28T20:21:22.248Z,31.52
2022-12-28T20:23:50.359Z,30.30
2022-12-28T20:26:18.501Z,31.20
2022-12-28T20:28:46.633Z,33.00
2022-12-28T20:31:14.902Z,30.58
2022-12-28T20:33:43.432Z,35.83
2022-12-28T20:36:34.042Z,34.53
2022-12-28T20:41:48.893Z,40.38
2022-12-28T20:44:22.131Z,38.15
2022-12-28T20:46:49.609Z,40.45
2022-12-28T20:49:17.320Z,40.63
2022-12-28T20:51:46.803Z,44.40
2022-12-28T20:54:14.815Z,46.17
2022-12-28T20:56:42.576Z,45.70
2022-12-28T20:59:11.005Z,41.03
2022-12-28T21:01:38.973Z,43.33
2022-12-28T21:04:06.354Z,40.08
2022-12-28T21:06:36.357Z,42.50
2022-12-28T21:09:03.940Z,44.33
2022-12-28T21:11:33.139Z,41.20
2022-12-28T21:14:01.095Z,41.70
2022-12-28T21:16:30.696Z,41.78
2022-12-28T21:18:58.246Z,38.08
2022-12-28T21:21:25.960Z,39.22
2022-12-28T21:23:54.717Z,33.97
2022-12-28T21:26:23.946Z,31.45
2022-12-28T21:28:51.644Z,32.97
2022-12-28T21:31:19.433Z,29.02
2022-12-28T21:33:46.888Z,26.95
2022-12-28T21:36:21.390Z,26.80
2022-12-28T21:38:49.679Z,24.95
2022-12-28T21:41:38.650Z,26.00
2022-12-28T21:44:09.104Z,21.80
2022-12-28T21:46:36.591Z,30.63
2022-12-28T21:49:04.278Z,27.20
2022-12-28T21:51:31.957Z,23.10
2022-12-28T21:54:00.335Z,24.85
2022-12-28T21:56:28.138Z,27.05
2022-12-28T21:58:55.650Z,27.15
2022-12-28T22:01:41.919Z,24.67
2022-12-28T22:04:30.644Z,19.92
2022-12-28T22:06:59.143Z,23.30
2022-12-28T22:09:45.112Z,19.15
2022-12-28T22:12:31.862Z,20.95
2022-12-28T22:19:00.396Z,22.40
2022-12-28T22:21:30.425Z,20.40
2022-12-28T22:24:18.655Z,19.38
2022-12-28T22:27:11.283Z,19.23
2022-12-28T22:32:42.267Z,16.70
2022-12-28T22:35:19.818Z,18.90
2022-12-28T22:37:56.436Z,22.25
2022-12-28T22:40:38.286Z,21.58
2022-12-28T22:43:13.653Z,20.40
2022-12-28T22:45:46.507Z,19.88
2022-12-28T22:48:23.238Z,18.38
2022-12-28T22:52:27.941Z,18.30
2022-12-28T22:58:04.759Z,18.88
2022-12-28T23:00:46.344Z,19.00
2022-12-28T23:09:00.016Z,18.38
2022-12-28T23:11:42.512Z,16.52
2022-12-28T23:14:28.323Z,13.88
2022-12-28T23:16:55.960Z,15.43
2022-12-28T23:19:42.042Z,15.85
2022-12-28T23:22:31.067Z,14.90
2022-12-28T23:25:16.795Z,14.77
2022-12-28T23:27:44.860Z,15.48
2022-12-28T23:30:13.934Z,13.27
2022-12-28T23:32:41.238Z,13.60
2022-12-28T23:35:08.609Z,13.15
2022-12-28T23:37:35.879Z,13.15
2022-12-28T23:40:03.115Z,13.98
2022-12-28T23:42:30.301Z,14.07
2022-12-28T23:44:57.668Z,13.50
2022-12-28T23:47:24.964Z,14.35
2022-12-28T23:49:52.384Z,14.07
2022-12-28T23:52:25.505Z,13.38
2022-12-28T23:54:53.302Z,13.68
2022-12-28T23:57:21.090Z,13.23
2022-12-28T23:59:48.724Z,13.73
